createdAt,value
2023-05-09T00:02:28.738Z,51.52
2023-05-09T00:04:59.629Z,51.62
2023-05-09T00:07:30.413Z,51.71
2023-05-09T00:10:01.554Z,51.80
2023-05-09T00:12:32.478Z,51.88
2023-05-09T00:15:03.945Z,51.96
2023-05-09T00:17:36.565Z,52.12
2023-05-09T00:20:12.446Z,52.27
2023-05-09T00:22:43.604Z,52.42
2023-05-09T00:25:14.824Z,52.39
2023-05-09T00:27:46.869Z,52.41
2023-05-09T00:30:18.613Z,52.64
2023-05-09T00:32:49.441Z,52.71
2023-05-09T00:35:20.276Z,52.61
2023-05-09T00:37:51.709Z,52.80
2023-05-09T00:40:22.758Z,52.89
2023-05-09T00:42:53.852Z,53.26
2023-05-09T00:45:24.957Z,53.13
2023-05-09T00:47:56.719Z,53.29
2023-05-09T00:50:28.490Z,53.17
2023-05-09T00:52:59.490Z,53.26
2023-05-09T00:55:30.620Z,53.42
2023-05-09T00:58:01.507Z,53.56
2023-05-09T01:00:32.401Z,53.61
2023-05-09T01:03:03.993Z,53.73
2023-05-09T01:05:45.164Z,53.95
2023-05-09T01:08:30.830Z,54.04
2023-05-09T01:11:09.913Z,54.00
2023-05-09T01:13:50.942Z,54.09
2023-05-09T01:16:31.248Z,53.97
2023-05-09T01:19:13.595Z,53.93
2023-05-09T01:21:48.113Z,54.15
2023-05-09T01:24:35.345Z,54.24
2023-05-09T01:27:22.521Z,54.27
2023-05-09T01:29:58.189Z,54.60
2023-05-09T01:32:32.533Z,54.72
2023-05-09T01:35:06.501Z,54.70
2023-05-09T01:37:40.851Z,54.66
2023-05-09T01:40:16.724Z,54.88
2023-05-09T01:42:52.982Z,55.00
2023-05-09T01:45:26.429Z,55.12
2023-05-09T01:47:59.924Z,55.31
2023-05-09T01:50:32.754Z,55.34
2023-05-09T01:53:07.527Z,55.46
2023-05-09T01:55:40.688Z,55.47
2023-05-09T01:58:13.248Z,55.50
2023-05-09T02:00:45.152Z,55.72
2023-05-09T02:03:17.114Z,55.77
2023-05-09T02:05:49.246Z,55.94
2023-05-09T02:08:22.247Z,56.13
2023-05-09T02:10:54.366Z,55.94
2023-05-09T02:13:25.595Z,55.87
2023-05-09T02:15:58.040Z,55.98
2023-05-09T02:18:29.614Z,56.17
2023-05-09T02:21:01.126Z,56.24
2023-05-09T02:23:32.766Z,56.41
2023-05-09T02:26:04.972Z,56.40
2023-05-09T02:28:37.893Z,56.45
2023-05-09T02:31:09.705Z,56.61
2023-05-09T02:33:42.923Z,56.63
2023-05-09T02:36:16.665Z,56.74
2023-05-09T02:38:48.553Z,56.89
2023-05-09T02:41:19.928Z,56.86
2023-05-09T02:43:51.949Z,56.82
2023-05-09T02:46:23.042Z,56.93
2023-05-09T02:48:54.170Z,56.94
2023-05-09T02:51:25.022Z,56.95
2023-05-09T02:53:55.992Z,57.07
2023-05-09T02:56:27.005Z,57.22
2023-05-09T02:58:57.790Z,57.28
2023-05-09T03:01:28.754Z,57.16
2023-05-09T03:04:00.424Z,57.29
2023-05-09T03:06:31.451Z,57.27
2023-05-09T03:09:02.351Z,57.52
2023-05-09T03:11:33.919Z,57.44
2023-05-09T03:14:05.080Z,57.43
2023-05-09T03:16:36.171Z,57.36
2023-05-09T03:19:07.890Z,57.37
2023-05-09T03:21:38.654Z,57.25
2023-05-09T03:24:11.770Z,57.17
2023-05-09T03:26:42.749Z,57.25
2023-05-09T03:29:13.645Z,57.29
2023-05-09T03:31:44.630Z,57.24
2023-05-09T03:34:15.516Z,57.14
2023-05-09T03:36:47.801Z,57.32
2023-05-09T03:39:18.857Z,57.25
2023-05-09T03:41:51.162Z,57.16
2023-05-09T03:44:22.104Z,56.97
2023-05-09T03:46:53.117Z,57.02
2023-05-09T03:49:24.228Z,56.95
2023-05-09T03:52:20.620Z,56.86
2023-05-09T03:54:52.679Z,56.35
2023-05-09T03:57:24.034Z,56.02
2023-05-09T03:59:55.268Z,55.79
2023-05-09T04:02:27.340Z,55.60
2023-05-09T04:05:06.582Z,54.97
2023-05-09T04:07:38.352Z,54.51
2023-05-09T04:10:11.714Z,53.99
2023-05-09T04:27:04.821Z,49.83
2023-05-09T04:29:42.098Z,48.92
2023-05-09T04:32:17.751Z,48.08
2023-05-09T04:34:50.448Z,47.35
2023-05-09T04:37:28.713Z,46.34
2023-05-09T04:43:32.907Z,43.36
2023-05-09T04:46:03.771Z,41.71
2023-05-09T04:48:35.721Z,41.02
2023-05-09T04:51:13.194Z,40.83
2023-05-09T04:53:44.432Z,40.49
2023-05-09T04:56:15.444Z,40.21
2023-05-09T04:58:52.823Z,39.32
2023-05-09T05:01:23.630Z,37.88
2023-05-09T05:04:18.517Z,37.20
2023-05-09T05:06:49.283Z,35.51
2023-05-09T05:09:20.485Z,34.90
2023-05-09T05:12:00.797Z,34.56
2023-05-09T05:14:33.519Z,33.54
2023-05-09T05:18:03.862Z,33.12
2023-05-09T05:21:36.655Z,33.18
2023-05-09T05:24:10.955Z,32.19
2023-05-09T05:26:42.616Z,31.30
2023-05-09T05:50:17.915Z,26.23
2023-05-09T05:52:50.527Z,25.86
2023-05-09T05:55:24.686Z,24.43
2023-05-09T05:57:57.138Z,24.23
2023-05-09T06:00:29.983Z,23.47
2023-05-09T06:03:07.145Z,23.33
2023-05-09T06:05:48.675Z,23.34
2023-05-09T06:08:22.218Z,22.98
2023-05-09T06:10:54.201Z,23.34
2023-05-09T06:13:25.058Z,23.15
2023-05-09T06:16:15.028Z,22.93
2023-05-09T06:18:50.130Z,23.19
2023-05-09T06:21:21.114Z,23.40
2023-05-09T06:24:07.723Z,23.07
2023-05-09T06:26:41.582Z,22.52
2023-05-09T06:29:16.973Z,22.92
2023-05-09T06:31:48.174Z,22.88
2023-05-09T06:34:19.338Z,22.37
2023-05-09T06:36:50.577Z,22.12
2023-05-09T06:39:23.295Z,22.06
2023-05-09T06:42:18.026Z,22.10
2023-05-09T06:44:48.868Z,22.12
2023-05-09T06:47:20.085Z,21.94
2023-05-09T06:49:52.217Z,21.69
2023-05-09T06:52:26.178Z,21.94
2023-05-09T06:55:00.386Z,21.66
2023-05-09T06:57:44.212Z,21.00
2023-05-09T07:00:22.951Z,21.06
2023-05-09T07:03:08.670Z,21.23
2023-05-09T07:05:43.174Z,20.77
2023-05-09T07:08:16.083Z,20.64
2023-05-09T07:11:13.187Z,20.87
2023-05-09T07:13:50.478Z,21.07
2023-05-09T07:16:23.239Z,21.34
2023-05-09T07:18:55.920Z,21.42
2023-05-09T07:21:28.068Z,21.81
2023-05-09T07:23:58.955Z,21.75
2023-05-09T07:26:31.567Z,21.66
2023-05-09T07:29:02.466Z,21.69
2023-05-09T07:31:37.347Z,21.76
2023-05-09T07:34:08.863Z,21.25
2023-05-09T07:36:39.871Z,21.19
2023-05-09T07:39:10.855Z,20.91
2023-05-09T07:41:42.293Z,21.29
2023-05-09T07:44:13.477Z,21.85
2023-05-09T07:46:47.103Z,22.00
2023-05-09T07:49:17.993Z,22.16
2023-05-09T07:51:49.530Z,21.84
2023-05-09T07:54:21.177Z,21.69
2023-05-09T07:56:52.199Z,21.92
2023-05-09T07:59:23.025Z,22.05
2023-05-09T08:01:54.220Z,21.39
2023-05-09T08:04:25.476Z,20.88
2023-05-09T08:06:56.377Z,21.08
2023-05-09T08:09:27.762Z,21.47
2023-05-09T08:12:00.029Z,21.35
2023-05-09T08:14:32.744Z,21.33
2023-05-09T08:17:07.313Z,21.56
2023-05-09T08:19:38.275Z,21.83
2023-05-09T08:22:09.177Z,21.78
2023-05-09T08:24:40.040Z,21.77
2023-05-09T08:27:10.837Z,22.02
2023-05-09T08:29:45.432Z,22.36
2023-05-09T08:32:16.427Z,22.42
2023-05-09T08:34:49.053Z,22.54
2023-05-09T08:37:20.027Z,22.38
2023-05-09T08:39:50.864Z,22.54
2023-05-09T08:42:26.069Z,22.42
2023-05-09T08:44:57.716Z,22.37
2023-05-09T08:47:30.507Z,22.62
2023-05-09T08:50:03.066Z,22.42
2023-05-09T08:52:35.204Z,22.42
2023-05-09T08:55:06.957Z,22.74
2023-05-09T08:58:01.930Z,22.65
2023-05-09T09:00:39.828Z,22.49
2023-05-09T09:03:09.129Z,22.63
2023-05-09T09:05:43.695Z,22.78
2023-05-09T09:08:15.519Z,22.80
2023-05-09T09:10:48.486Z,22.90
2023-05-09T09:14:09.032Z,23.02
2023-05-09T09:16:42.560Z,23.17
2023-05-09T09:19:17.970Z,23.26
2023-05-09T09:21:51.205Z,22.84
2023-05-09T09:24:25.858Z,22.82
2023-05-09T09:26:56.636Z,22.93
2023-05-09T09:29:28.828Z,23.08
2023-05-09T09:32:03.213Z,23.53
2023-05-09T09:34:34.524Z,23.45
2023-05-09T09:37:07.533Z,23.58
2023-05-09T09:40:01.940Z,23.16
2023-05-09T09:42:43.939Z,23.07
2023-05-09T09:45:16.686Z,23.17
2023-05-09T09:47:48.963Z,23.06
2023-05-09T09:50:23.470Z,22.76
2023-05-09T09:53:19.417Z,22.70
2023-05-09T09:55:53.976Z,22.59
2023-05-09T09:58:25.580Z,22.77
2023-05-09T10:01:09.889Z,22.76
2023-05-09T10:03:42.498Z,22.90
2023-05-09T10:06:17.686Z,23.21
2023-05-09T10:08:52.404Z,23.08
2023-05-09T10:11:23.385Z,22.76
2023-05-09T10:13:59.494Z,22.71
2023-05-09T10:16:43.850Z,22.87
2023-05-09T10:19:23.219Z,22.92
2023-05-09T10:21:57.624Z,23.21
2023-05-09T10:24:35.516Z,22.99
2023-05-09T10:27:11.685Z,23.10
2023-05-09T10:30:04.048Z,22.69
2023-05-09T10:32:43.363Z,23.00
2023-05-09T10:35:17.333Z,23.22
2023-05-09T10:37:49.423Z,23.26
2023-05-09T10:40:20.658Z,23.37
2023-05-09T10:42:51.888Z,23.35
2023-05-09T10:45:23.927Z,23.29
2023-05-09T10:47:57.497Z,23.39
2023-05-09T10:50:30.400Z,23.52
2023-05-09T10:53:20.588Z,23.68
2023-05-09T10:56:00.432Z,23.32
2023-05-09T10:58:33.757Z,23.49
2023-05-09T11:01:07.067Z,23.59
2023-05-09T11:03:58.024Z,23.56
2023-05-09T11:06:49.577Z,24.19
2023-05-09T11:09:28.757Z,24.17
2023-05-09T11:12:02.331Z,24.08
2023-05-09T11:14:39.180Z,23.82
2023-05-09T11:17:17.382Z,23.50
2023-05-09T11:20:07.887Z,23.64
2023-05-09T11:22:44.456Z,23.78
2023-05-09T11:25:17.185Z,23.65
2023-05-09T11:27:50.233Z,23.62
2023-05-09T11:30:22.515Z,23.66
2023-05-09T11:32:59.019Z,23.83
2023-05-09T11:35:30.255Z,24.14
2023-05-09T11:38:05.140Z,24.10
2023-05-09T11:40:37.431Z,24.17
2023-05-09T11:43:11.137Z,24.43
2023-05-09T11:45:43.478Z,24.55
2023-05-09T11:48:15.165Z,24.47
2023-05-09T11:50:50.120Z,24.23
2023-05-09T11:53:22.592Z,24.33
2023-05-09T11:55:55.219Z,24.41
2023-05-09T11:58:25.978Z,24.41
2023-05-09T12:00:57.589Z,24.63
2023-05-09T12:03:31.114Z,24.60
2023-05-09T12:06:03.333Z,24.79
2023-05-09T12:08:37.386Z,24.79
2023-05-09T12:11:21.540Z,24.54
2023-05-09T12:14:01.449Z,24.35
2023-05-09T12:16:35.006Z,24.57
2023-05-09T12:19:06.280Z,24.69
2023-05-09T12:21:41.374Z,24.90
2023-05-09T12:24:13.231Z,25.07
2023-05-09T12:26:44.927Z,25.00
2023-05-09T12:30:23.472Z,25.03
2023-05-09T12:33:05.453Z,25.14
2023-05-09T12:35:39.672Z,25.11
2023-05-09T12:38:17.179Z,25.02
2023-05-09T12:41:03.683Z,24.94
2023-05-09T12:43:38.108Z,25.00
2023-05-09T12:46:09.218Z,25.03
2023-05-09T12:48:43.976Z,25.21
2023-05-09T12:51:19.314Z,25.18
2023-05-09T12:53:50.490Z,25.28
2023-05-09T12:56:24.301Z,25.28
2023-05-09T12:58:57.665Z,25.25
2023-05-09T13:04:31.406Z,25.52
2023-05-09T13:07:11.507Z,25.65
2023-05-09T13:09:57.956Z,25.70
2023-05-09T13:12:29.483Z,25.71
2023-05-09T13:15:00.768Z,25.76
2023-05-09T13:17:34.569Z,25.83
2023-05-09T13:20:09.344Z,25.70
2023-05-09T13:22:40.562Z,25.63
2023-05-09T13:25:17.169Z,25.68
2023-05-09T13:27:48.016Z,25.72
2023-05-09T13:30:21.605Z,25.89
2023-05-09T13:32:54.917Z,26.00
2023-05-09T13:35:26.008Z,25.97
2023-05-09T13:37:59.188Z,25.86
2023-05-09T13:40:30.298Z,25.75
2023-05-09T13:43:03.882Z,25.76
2023-05-09T13:45:43.915Z,25.75
2023-05-09T13:48:21.161Z,25.79
2023-05-09T13:50:53.450Z,25.71
2023-05-09T13:53:24.544Z,25.88
2023-05-09T13:55:55.486Z,26.09
2023-05-09T13:58:26.325Z,26.19
2023-05-09T14:00:57.334Z,26.17
2023-05-09T14:03:28.511Z,26.12
2023-05-09T14:06:00.039Z,25.92
2023-05-09T14:08:35.470Z,25.92
2023-05-09T14:11:07.653Z,26.04
2023-05-09T14:13:38.593Z,26.12
2023-05-09T14:16:09.966Z,26.30
2023-05-09T14:18:42.428Z,26.20
2023-05-09T14:21:13.755Z,26.05
2023-05-09T14:23:46.359Z,26.00
2023-05-09T14:26:17.276Z,26.16
2023-05-09T14:28:48.315Z,26.11
2023-05-09T14:32:07.613Z,26.10
2023-05-09T14:34:38.625Z,26.10
2023-05-09T14:37:13.778Z,26.36
2023-05-09T14:39:43.337Z,26.23
2023-05-09T14:42:14.445Z,26.28
2023-05-09T14:44:47.656Z,26.39
2023-05-09T14:47:20.780Z,26.46
2023-05-09T14:49:52.360Z,26.60
2023-05-09T14:52:23.639Z,26.55
2023-05-09T14:54:54.549Z,26.70
2023-05-09T14:57:25.343Z,26.48
2023-05-09T15:00:12.634Z,26.15
2023-05-09T15:02:50.760Z,26.24
2023-05-09T15:05:22.460Z,26.25
2023-05-09T15:07:53.487Z,26.24
2023-05-09T15:10:32.672Z,26.23
2023-05-09T15:13:05.941Z,26.35
2023-05-09T15:15:38.500Z,26.63
2023-05-09T15:18:15.904Z,26.60
2023-05-09T15:20:47.444Z,26.70
2023-05-09T15:23:18.855Z,26.69
2023-05-09T15:25:49.742Z,26.42
2023-05-09T15:28:20.575Z,26.51
2023-05-09T15:30:51.856Z,26.55
2023-05-09T15:33:22.651Z,26.53
2023-05-09T15:35:57.756Z,26.47
2023-05-09T15:38:27.207Z,26.72
2023-05-09T15:40:58.089Z,26.72
2023-05-09T15:43:28.988Z,26.62
2023-05-09T15:45:59.771Z,26.62
2023-05-09T15:48:31.303Z,26.74
2023-05-09T15:51:02.732Z,26.74
2023-05-09T15:53:34.292Z,26.78
2023-05-09T15:56:05.312Z,26.79
2023-05-09T15:58:36.969Z,26.96
2023-05-09T16:01:10.879Z,26.86
2023-05-09T16:03:43.456Z,26.85
2023-05-09T16:06:15.659Z,26.89
2023-05-09T16:08:47.679Z,27.00
2023-05-09T16:11:18.770Z,26.95
2023-05-09T16:13:49.730Z,26.93
2023-05-09T16:16:20.795Z,26.89
2023-05-09T16:18:53.485Z,26.82
2023-05-09T16:21:26.409Z,26.87
2023-05-09T16:23:58.114Z,26.94
2023-05-09T16:26:28.978Z,26.91
2023-05-09T16:29:00.518Z,26.94
2023-05-09T16:31:32.737Z,27.04
2023-05-09T16:34:08.338Z,27.00
2023-05-09T16:36:44.261Z,26.99
2023-05-09T16:39:20.233Z,27.18
2023-05-09T16:41:51.268Z,27.19
2023-05-09T16:44:22.420Z,27.09
2023-05-09T16:46:53.288Z,27.56
2023-05-09T16:49:24.165Z,27.40
2023-05-09T16:51:54.962Z,27.62
2023-05-09T16:54:29.381Z,27.41
2023-05-09T16:57:01.236Z,27.41
2023-05-09T16:59:32.919Z,27.39
2023-05-09T17:02:04.579Z,27.36
2023-05-09T17:04:37.796Z,27.45
2023-05-09T17:07:09.079Z,27.59
2023-05-09T17:09:40.000Z,27.76
2023-05-09T17:12:17.604Z,27.93
2023-05-09T17:14:54.456Z,27.90
2023-05-09T17:17:25.733Z,27.84
2023-05-09T17:19:57.864Z,27.68
2023-05-09T17:22:37.213Z,27.56
2023-05-09T17:25:32.156Z,27.53
2023-05-09T17:28:05.340Z,27.59
2023-05-09T17:30:42.705Z,27.72
2023-05-09T17:33:14.257Z,27.77
2023-05-09T17:35:45.167Z,27.90
2023-05-09T17:38:18.402Z,28.15
2023-05-09T17:45:16.808Z,28.19
2023-05-09T17:47:48.165Z,28.29
2023-05-09T17:51:30.785Z,28.37
2023-05-09T17:58:23.327Z,28.52
2023-05-09T18:06:27.587Z,28.76
2023-05-09T18:09:37.879Z,28.84
2023-05-09T18:12:09.999Z,28.88
2023-05-09T18:14:43.843Z,28.93
2023-05-09T18:17:15.117Z,29.00
2023-05-09T18:19:48.460Z,29.09
2023-05-09T18:22:20.951Z,29.19
2023-05-09T18:28:39.537Z,29.44
2023-05-09T18:31:22.410Z,29.44
2023-05-09T18:43:15.769Z,30.08
2023-05-09T18:46:24.660Z,30.16
2023-05-09T18:48:57.474Z,30.17
2023-05-09T18:51:34.744Z,30.37
2023-05-09T19:19:30.504Z,30.76
2023-05-09T19:50:27.940Z,31.18
2023-05-09T19:53:08.959Z,31.37
2023-05-09T19:55:50.056Z,31.42
2023-05-09T19:58:18.581Z,31.39
2023-05-09T20:00:58.654Z,31.55
2023-05-09T20:03:26.900Z,31.76
2023-05-09T20:08:41.706Z,32.01
2023-05-09T20:11:09.776Z,32.16
2023-05-09T20:13:38.008Z,32.30
2023-05-09T20:16:12.062Z,32.46
2023-05-09T20:18:40.099Z,32.64
2023-05-09T20:21:16.736Z,32.66
2023-05-09T20:23:44.833Z,32.70
2023-05-09T20:26:13.503Z,32.90
2023-05-09T20:28:41.960Z,33.01
2023-05-09T20:31:10.756Z,33.13
2023-05-09T20:33:40.409Z,33.18
2023-05-09T20:36:10.225Z,33.15
2023-05-09T20:38:38.244Z,33.34
2023-05-09T20:41:06.378Z,33.43
2023-05-09T20:43:35.008Z,33.44
2023-05-09T20:46:03.911Z,33.65
2023-05-09T20:48:32.670Z,33.69
2023-05-09T20:51:01.231Z,33.76
2023-05-09T20:53:31.705Z,33.81
2023-05-09T20:56:02.139Z,33.89
2023-05-09T20:58:33.265Z,33.97
2023-05-09T21:01:02.174Z,34.03
2023-05-09T21:03:30.317Z,34.11
2023-05-09T21:05:59.356Z,34.08
2023-05-09T21:08:27.639Z,34.13
2023-05-09T21:10:55.690Z,34.18
2023-05-09T21:13:23.825Z,34.18
2023-05-09T21:15:54.256Z,34.20
2023-05-09T21:18:22.348Z,34.24
2023-05-09T21:20:50.565Z,34.42
2023-05-09T21:23:18.825Z,34.35
2023-05-09T21:25:46.827Z,34.26
2023-05-09T21:28:15.094Z,34.30
2023-05-09T21:30:43.525Z,34.37
2023-05-09T21:33:11.718Z,34.31
2023-05-09T21:35:39.728Z,34.27
2023-05-09T21:38:08.723Z,34.18
2023-05-09T21:40:36.818Z,34.09
2023-05-09T21:43:04.878Z,34.12
2023-05-09T21:45:33.255Z,34.08
2023-05-09T21:48:01.395Z,34.22
2023-05-09T21:50:29.622Z,34.22
2023-05-09T21:52:57.757Z,34.20
2023-05-09T21:55:26.592Z,34.08
2023-05-09T21:57:54.714Z,34.06
2023-05-09T22:00:23.004Z,34.18
2023-05-09T22:02:52.150Z,34.13
2023-05-09T22:05:20.588Z,34.11
2023-05-09T22:07:48.518Z,34.15
2023-05-09T22:10:16.967Z,34.26
2023-05-09T22:12:45.193Z,34.19
2023-05-09T22:15:13.618Z,34.29
2023-05-09T22:17:41.675Z,34.26
2023-05-09T22:20:11.563Z,34.36
2023-05-09T22:22:39.817Z,34.35
2023-05-09T22:25:09.010Z,34.34
2023-05-09T22:27:37.050Z,34.38
2023-05-09T22:30:08.570Z,34.36
2023-05-09T22:32:40.849Z,34.37
2023-05-09T22:35:10.775Z,34.38
2023-05-09T22:37:38.828Z,34.53
2023-05-09T22:40:09.987Z,34.57
2023-05-09T22:42:39.354Z,34.38
2023-05-09T22:45:09.445Z,34.62
2023-05-09T22:47:37.610Z,34.56
2023-05-09T22:50:07.723Z,34.54
2023-05-09T22:52:35.774Z,34.65
2023-05-09T22:55:04.449Z,34.75
2023-05-09T22:57:32.502Z,34.74
2023-05-09T23:00:00.585Z,34.81
2023-05-09T23:02:29.122Z,34.85
2023-05-09T23:04:57.335Z,34.91
2023-05-09T23:07:25.415Z,35.08
2023-05-09T23:09:53.411Z,35.01
2023-05-09T23:12:21.483Z,35.06
2023-05-09T23:14:49.611Z,35.17
2023-05-09T23:17:22.330Z,35.27
2023-05-09T23:19:50.521Z,35.26
2023-05-09T23:22:18.595Z,35.07
2023-05-09T23:24:46.593Z,35.31
2023-05-09T23:27:14.541Z,35.30
2023-05-09T23:29:42.858Z,35.33
2023-05-09T23:32:11.160Z,35.64
2023-05-09T23:34:41.503Z,35.37
2023-05-09T23:37:09.877Z,35.58
2023-05-09T23:39:40.109Z,35.54
2023-05-09T23:42:08.104Z,35.78
2023-05-09T23:44:36.455Z,35.75
2023-05-09T23:47:05.904Z,36.05
2023-05-09T23:49:34.279Z,35.92
2023-05-09T23:52:02.380Z,36.15
2023-05-09T23:54:30.559Z,36.08
2023-05-09T23:56:58.615Z,36.16
2023-05-09T23:59:26.730Z,36.29
